sensor_id;sensor_type;location;lat;lon;timestamp;pressure;altitude;pressure_sealevel;temperature;humidity
40992;BME280;29633;49.168;9.848;2022-11-30T00:01:59;97084.75;;;11.90;68.27
40992;BME280;29633;49.168;9.848;2022-11-30T00:04:25;97085.56;;;11.91;68.32
40992;BME280;29633;49.168;9.848;2022-11-30T00:06:51;97087.34;;;11.90;68.28
40992;BME280;29633;49.168;9.848;2022-11-30T00:09:22;97080.50;;;11.89;68.31
40992;BME280;29633;49.168;9.848;2022-11-30T00:11:48;97072.81;;;11.88;68.35
40992;BME280;29633;49.168;9.848;2022-11-30T00:14:14;97078.03;;;11.88;68.36
40992;BME280;29633;49.168;9.848;2022-11-30T00:16:39;97075.44;;;11.88;68.21
40992;BME280;29633;49.168;9.848;2022-11-30T00:19:05;97082.38;;;11.87;68.60
40992;BME280;29633;49.168;9.848;2022-11-30T00:21:30;97086.66;;;11.88;68.41
40992;BME280;29633;49.168;9.848;2022-11-30T00:23:56;97087.47;;;11.89;68.37
40992;BME280;29633;49.168;9.848;2022-11-30T00:26:22;97082.28;;;11.89;68.46
40992;BME280;29633;49.168;9.848;2022-11-30T00:28:48;97078.75;;;11.90;68.34
40992;BME280;29633;49.168;9.848;2022-11-30T00:31:15;97083.09;;;11.89;68.48
40992;BME280;29633;49.168;9.848;2022-11-30T00:33:41;97084.03;;;11.88;68.41
40992;BME280;29633;49.168;9.848;2022-11-30T00:36:15;97082.28;;;11.89;68.26
40992;BME280;29633;49.168;9.848;2022-11-30T00:38:41;97083.09;;;11.89;68.53
40992;BME280;29633;49.168;9.848;2022-11-30T00:41:07;97083.94;;;11.90;68.35
40992;BME280;29633;49.168;9.848;2022-11-30T00:43:32;97068.34;;;11.90;68.33
40992;BME280;29633;49.168;9.848;2022-11-30T00:45:58;97076.00;;;11.91;68.29
40992;BME280;29633;49.168;9.848;2022-11-30T00:48:24;97072.56;;;11.91;68.42
40992;BME280;29633;49.168;9.848;2022-11-30T00:50:50;97073.56;;;11.90;68.35
40992;BME280;29633;49.168;9.848;2022-11-30T00:53:16;97077.09;;;11.89;68.38
40992;BME280;29633;49.168;9.848;2022-11-30T00:55:42;97070.22;;;11.88;68.40
40992;BME280;29633;49.168;9.848;2022-11-30T00:58:08;97073.66;;;11.88;68.33
40992;BME280;29633;49.168;9.848;2022-11-30T01:00:34;97071.88;;;11.89;68.56
40992;BME280;29633;49.168;9.848;2022-11-30T01:03:00;97075.44;;;11.88;68.48
40992;BME280;29633;49.168;9.848;2022-11-30T01:05:27;97078.03;;;11.88;68.45
40992;BME280;29633;49.168;9.848;2022-11-30T01:07:53;97079.78;;;11.87;68.22
40992;BME280;29633;49.168;9.848;2022-11-30T01:10:19;97085.81;;;11.88;68.59
40992;BME280;29633;49.168;9.848;2022-11-30T01:12:47;97079.78;;;11.87;68.58
40992;BME280;29633;49.168;9.848;2022-11-30T01:15:13;97076.25;;;11.88;68.39
40992;BME280;29633;49.168;9.848;2022-11-30T01:17:39;97085.72;;;11.89;68.62
40992;BME280;29633;49.168;9.848;2022-11-30T01:20:05;97087.34;;;11.90;68.55
40992;BME280;29633;49.168;9.848;2022-11-30T01:22:32;97084.75;;;11.90;68.50
40992;BME280;29633;49.168;9.848;2022-11-30T01:25:00;97082.13;;;11.90;68.50
40992;BME280;29633;49.168;9.848;2022-11-30T01:27:26;97090.75;;;11.91;68.48
40992;BME280;29633;49.168;9.848;2022-11-30T01:29:52;97081.34;;;11.90;68.56
40992;BME280;29633;49.168;9.848;2022-11-30T01:32:17;97083.94;;;11.90;68.56
40992;BME280;29633;49.168;9.848;2022-11-30T01:34:43;97083.94;;;11.90;68.48
40992;BME280;29633;49.168;9.848;2022-11-30T01:37:09;97086.41;;;11.91;68.52
40992;BME280;29633;49.168;9.848;2022-11-30T01:39:34;97083.94;;;11.90;68.33
40992;BME280;29633;49.168;9.848;2022-11-30T01:42:00;97079.69;;;11.89;68.41
40992;BME280;29633;49.168;9.848;2022-11-30T01:49:27;97096.94;;;11.90;68.45
40992;BME280;29633;49.168;9.848;2022-11-30T01:52:06;97099.63;;;11.88;68.58
40992;BME280;29633;49.168;9.848;2022-11-30T01:57:44;97104.72;;;11.90;68.39
40992;BME280;29633;49.168;9.848;2022-11-30T02:00:12;97103.06;;;11.89;68.41
40992;BME280;29633;49.168;9.848;2022-11-30T02:05:39;97104.72;;;11.90;68.55
40992;BME280;29633;49.168;9.848;2022-11-30T02:08:06;97110.72;;;11.90;68.43
40992;BME280;29633;49.168;9.848;2022-11-30T02:10:35;97104.72;;;11.90;68.35
40992;BME280;29633;49.168;9.848;2022-11-30T02:18:46;97109.09;;;11.89;68.37
40992;BME280;29633;49.168;9.848;2022-11-30T02:21:23;97112.50;;;11.90;68.56
40992;BME280;29633;49.168;9.848;2022-11-30T02:27:28;97110.72;;;11.90;68.53
40992;BME280;29633;49.168;9.848;2022-11-30T02:30:14;97101.28;;;11.89;68.67
40992;BME280;29633;49.168;9.848;2022-11-30T02:35:20;97103.06;;;11.89;68.58
40992;BME280;29633;49.168;9.848;2022-11-30T02:37:47;97108.25;;;11.89;68.46
40992;BME280;29633;49.168;9.848;2022-11-30T02:40:16;97103.06;;;11.89;68.55
40992;BME280;29633;49.168;9.848;2022-11-30T02:42:42;97102.22;;;11.88;68.46
40992;BME280;29633;49.168;9.848;2022-11-30T02:45:08;97103.06;;;11.89;68.52
40992;BME280;29633;49.168;9.848;2022-11-30T02:47:42;97100.47;;;11.89;68.47
40992;BME280;29633;49.168;9.848;2022-11-30T02:52:38;97104.59;;;11.91;68.62
40992;BME280;29633;49.168;9.848;2022-11-30T02:55:06;97100.22;;;11.92;68.58
40992;BME280;29633;49.168;9.848;2022-11-30T02:57:32;97097.63;;;11.92;68.59
40992;BME280;29633;49.168;9.848;2022-11-30T02:59:58;97100.22;;;11.92;68.58
40992;BME280;29633;49.168;9.848;2022-11-30T03:02:25;97101.03;;;11.92;68.55
40992;BME280;29633;49.168;9.848;2022-11-30T03:04:51;97100.94;;;11.94;68.47
40992;BME280;29633;49.168;9.848;2022-11-30T03:07:17;97099.97;;;11.95;68.61
40992;BME280;29633;49.168;9.848;2022-11-30T03:09:42;97098.44;;;11.92;68.72
40992;BME280;29633;49.168;9.848;2022-11-30T03:12:08;97108.00;;;11.92;68.64
40992;BME280;29633;49.168;9.848;2022-11-30T03:14:34;97107.31;;;11.90;68.77
40992;BME280;29633;49.168;9.848;2022-11-30T03:16:59;97111.53;;;11.91;68.70
40992;BME280;29633;49.168;9.848;2022-11-30T03:19:25;97103.63;;;11.92;68.60
40992;BME280;29633;49.168;9.848;2022-11-30T03:21:51;97107.91;;;11.93;68.53
40992;BME280;29633;49.168;9.848;2022-11-30T03:24:16;97114.88;;;11.93;68.50
40992;BME280;29633;49.168;9.848;2022-11-30T03:26:42;97112.13;;;11.94;68.58
40992;BME280;29633;49.168;9.848;2022-11-30T03:29:08;97116.53;;;11.94;68.68
40992;BME280;29633;49.168;9.848;2022-11-30T03:31:34;97112.13;;;11.94;68.76
40992;BME280;29633;49.168;9.848;2022-11-30T03:33:59;97117.31;;;11.94;68.72
40992;BME280;29633;49.168;9.848;2022-11-30T03:36:25;97118.16;;;11.95;68.52
40992;BME280;29633;49.168;9.848;2022-11-30T03:38:51;97121.72;;;11.94;68.62
40992;BME280;29633;49.168;9.848;2022-11-30T03:41:17;97116.53;;;11.94;68.57
40992;BME280;29633;49.168;9.848;2022-11-30T03:43:43;97129.50;;;11.94;68.67
40992;BME280;29633;49.168;9.848;2022-11-30T03:46:10;97127.72;;;11.94;68.66
40992;BME280;29633;49.168;9.848;2022-11-30T03:48:37;97126.78;;;11.95;68.52
40992;BME280;29633;49.168;9.848;2022-11-30T03:51:04;97119.22;;;11.92;68.42
40992;BME280;29633;49.168;9.848;2022-11-30T03:53:30;97126.09;;;11.93;68.62
40992;BME280;29633;49.168;9.848;2022-11-30T03:55:58;97115.13;;;11.90;68.55
40992;BME280;29633;49.168;9.848;2022-11-30T03:58:25;97122.91;;;11.90;68.44
40992;BME280;29633;49.168;9.848;2022-11-30T04:01:01;97124.69;;;11.89;68.59
40992;BME280;29633;49.168;9.848;2022-11-30T04:03:28;97116.31;;;11.86;68.67
40992;BME280;29633;49.168;9.848;2022-11-30T04:05:54;97114.16;;;11.79;68.62
40992;BME280;29633;49.168;9.848;2022-11-30T04:08:20;97118.00;;;11.75;68.60
40992;BME280;29633;49.168;9.848;2022-11-30T04:10:46;97117.28;;;11.73;68.68
40992;BME280;29633;49.168;9.848;2022-11-30T04:13:14;97113.97;;;11.71;68.54
40992;BME280;29633;49.168;9.848;2022-11-30T04:15:40;97114.06;;;11.70;68.38
40992;BME280;29633;49.168;9.848;2022-11-30T04:18:06;97126.22;;;11.69;68.66
40992;BME280;29633;49.168;9.848;2022-11-30T04:20:31;97123.63;;;11.69;68.37
40992;BME280;29633;49.168;9.848;2022-11-30T04:22:57;97119.50;;;11.67;68.28
40992;BME280;29633;49.168;9.848;2022-11-30T04:25:23;97118.66;;;11.66;68.39
40992;BME280;29633;49.168;9.848;2022-11-30T04:27:49;97121.97;;;11.68;68.35
40992;BME280;29633;49.168;9.848;2022-11-30T04:30:15;97128.94;;;11.68;68.37
40992;BME280;29633;49.168;9.848;2022-11-30T04:32:41;97121.16;;;11.68;68.20
40992;BME280;29633;49.168;9.848;2022-11-30T04:35:07;97124.81;;;11.65;68.42
40992;BME280;29633;49.168;9.848;2022-11-30T04:37:33;97129.31;;;11.63;68.54
40992;BME280;29633;49.168;9.848;2022-11-30T04:39:59;97130.00;;;11.65;68.52
40992;BME280;29633;49.168;9.848;2022-11-30T04:42:24;97123.88;;;11.66;68.54
40992;BME280;29633;49.168;9.848;2022-11-30T04:44:50;97126.56;;;11.65;68.44
40992;BME280;29633;49.168;9.848;2022-11-30T04:47:16;97130.13;;;11.64;68.55
40992;BME280;29633;49.168;9.848;2022-11-30T04:49:41;97124.94;;;11.64;68.40
40992;BME280;29633;49.168;9.848;2022-11-30T04:52:07;97133.56;;;11.64;68.66
40992;BME280;29633;49.168;9.848;2022-11-30T04:54:33;97135.19;;;11.65;68.23
40992;BME280;29633;49.168;9.848;2022-11-30T04:56:58;97136.16;;;11.64;68.33
40992;BME280;29633;49.168;9.848;2022-11-30T04:59:24;97139.69;;;11.63;68.21
40992;BME280;29633;49.168;9.848;2022-11-30T05:01:49;97141.47;;;11.63;68.34
40992;BME280;29633;49.168;9.848;2022-11-30T05:04:15;97144.88;;;11.63;68.34
40992;BME280;29633;49.168;9.848;2022-11-30T05:06:41;97142.53;;;11.60;68.41
40992;BME280;29633;49.168;9.848;2022-11-30T05:09:06;97142.53;;;11.60;68.47
40992;BME280;29633;49.168;9.848;2022-11-30T05:11:32;97146.16;;;11.58;68.57
40992;BME280;29633;49.168;9.848;2022-11-30T05:13:58;97140.19;;;11.57;68.48
40992;BME280;29633;49.168;9.848;2022-11-30T05:16:23;97146.16;;;11.58;68.57
40992;BME280;29633;49.168;9.848;2022-11-30T05:18:49;97150.56;;;11.57;68.49
40992;BME280;29633;49.168;9.848;2022-11-30T05:21:14;97143.72;;;11.56;68.42
40992;BME280;29633;49.168;9.848;2022-11-30T05:23:41;97148.19;;;11.54;68.46
40992;BME280;29633;49.168;9.848;2022-11-30T05:26:06;97148.31;;;11.53;68.41
40992;BME280;29633;49.168;9.848;2022-11-30T05:28:32;97151.75;;;11.53;68.52
40992;BME280;29633;49.168;9.848;2022-11-30T05:31:04;97152.00;;;11.50;68.48
40992;BME280;29633;49.168;9.848;2022-11-30T05:33:30;97146.91;;;11.49;68.64
40992;BME280;29633;49.168;9.848;2022-11-30T05:35:56;97153.88;;;11.48;68.55
40992;BME280;29633;49.168;9.848;2022-11-30T05:38:22;97152.19;;;11.47;68.59
40992;BME280;29633;49.168;9.848;2022-11-30T05:40:47;97154.81;;;11.47;68.43
40992;BME280;29633;49.168;9.848;2022-11-30T05:43:13;97155.63;;;11.48;68.60
40992;BME280;29633;49.168;9.848;2022-11-30T05:45:39;97153.97;;;11.47;68.35
40992;BME280;29633;49.168;9.848;2022-11-30T05:48:05;97160.00;;;11.47;68.40
40992;BME280;29633;49.168;9.848;2022-11-30T05:50:31;97158.38;;;11.46;68.79
40992;BME280;29633;49.168;9.848;2022-11-30T05:52:57;97149.59;;;11.47;68.57
40992;BME280;29633;49.168;9.848;2022-11-30T05:55:26;97150.69;;;11.45;68.61
40992;BME280;29633;49.168;9.848;2022-11-30T05:57:52;97147.97;;;11.46;68.57
40992;BME280;29633;49.168;9.848;2022-11-30T06:00:18;97147.97;;;11.46;68.47
40992;BME280;29633;49.168;9.848;2022-11-30T06:02:44;97152.44;;;11.44;68.61
40992;BME280;29633;49.168;9.848;2022-11-30T06:05:10;97156.69;;;11.45;68.46
40992;BME280;29633;49.168;9.848;2022-11-30T06:07:38;97160.22;;;11.44;68.53
40992;BME280;29633;49.168;9.848;2022-11-30T06:10:05;97159.41;;;11.44;68.48
40992;BME280;29633;49.168;9.848;2022-11-30T06:12:30;97162.84;;;11.44;68.41
40992;BME280;29633;49.168;9.848;2022-11-30T06:14:56;97168.03;;;11.44;68.39
40992;BME280;29633;49.168;9.848;2022-11-30T06:17:22;97166.38;;;11.43;68.51
40992;BME280;29633;49.168;9.848;2022-11-30T06:19:47;97163.75;;;11.43;68.38
40992;BME280;29633;49.168;9.848;2022-11-30T06:22:13;97164.84;;;11.41;68.59
40992;BME280;29633;49.168;9.848;2022-11-30T06:24:39;97169.94;;;11.42;68.41
40992;BME280;29633;49.168;9.848;2022-11-30T06:27:04;97157.88;;;11.41;68.55
40992;BME280;29633;49.168;9.848;2022-11-30T06:29:30;97164.00;;;11.40;68.30
40992;BME280;29633;49.168;9.848;2022-11-30T06:31:55;97168.38;;;11.40;68.63
40992;BME280;29633;49.168;9.848;2022-11-30T06:34:21;97157.88;;;11.41;68.55
40992;BME280;29633;49.168;9.848;2022-11-30T06:36:47;97160.47;;;11.41;68.63
40992;BME280;29633;49.168;9.848;2022-11-30T06:39:12;97157.06;;;11.41;68.52
40992;BME280;29633;49.168;9.848;2022-11-30T06:41:38;97150.09;;;11.41;68.45
40992;BME280;29633;49.168;9.848;2022-11-30T06:44:08;97162.38;;;11.39;68.28
40992;BME280;29633;49.168;9.848;2022-11-30T06:46:34;97154.47;;;11.41;68.50
40992;BME280;29633;49.168;9.848;2022-11-30T06:48:59;97152.59;;;11.43;68.46
40992;BME280;29633;49.168;9.848;2022-11-30T06:51:25;97163.06;;;11.41;68.53
40992;BME280;29633;49.168;9.848;2022-11-30T06:53:51;97168.16;;;11.43;68.61
40992;BME280;29633;49.168;9.848;2022-11-30T06:56:16;97162.97;;;11.43;68.45
40992;BME280;29633;49.168;9.848;2022-11-30T06:58:42;97163.75;;;11.43;68.56
40992;BME280;29633;49.168;9.848;2022-11-30T07:01:13;97171.34;;;11.46;68.37
40992;BME280;29633;49.168;9.848;2022-11-30T07:03:40;97171.34;;;11.46;68.44
40992;BME280;29633;49.168;9.848;2022-11-30T07:06:07;97174.63;;;11.48;68.41
40992;BME280;29633;49.168;9.848;2022-11-30T07:08:33;97178.16;;;11.47;68.42
40992;BME280;29633;49.168;9.848;2022-11-30T07:10:59;97172.03;;;11.48;68.56
40992;BME280;29633;49.168;9.848;2022-11-30T07:13:24;97177.22;;;11.48;68.37
40992;BME280;29633;49.168;9.848;2022-11-30T07:15:50;97172.88;;;11.49;68.37
40992;BME280;29633;49.168;9.848;2022-11-30T07:18:16;97180.56;;;11.50;68.25
40992;BME280;29633;49.168;9.848;2022-11-30T07:20:41;97181.34;;;11.51;68.25
40992;BME280;29633;49.168;9.848;2022-11-30T07:23:07;97184.91;;;11.50;68.44
40992;BME280;29633;49.168;9.848;2022-11-30T07:25:52;97183.34;;;11.47;68.65
40992;BME280;29633;49.168;9.848;2022-11-30T07:28:41;97186.91;;;11.46;68.37
40992;BME280;29633;49.168;9.848;2022-11-30T07:33:51;97185.13;;;11.47;68.70
40992;BME280;29633;49.168;9.848;2022-11-30T07:36:18;97177.56;;;11.44;68.47
40992;BME280;29633;49.168;9.848;2022-11-30T07:38:45;97181.72;;;11.46;68.40
40992;BME280;29633;49.168;9.848;2022-11-30T07:41:11;97178.88;;;11.49;68.61
40992;BME280;29633;49.168;9.848;2022-11-30T07:43:36;97176.06;;;11.52;68.48
40992;BME280;29633;49.168;9.848;2022-11-30T07:46:02;97179.34;;;11.54;68.42
40992;BME280;29633;49.168;9.848;2022-11-30T07:48:28;97182.66;;;11.56;68.47
40992;BME280;29633;49.168;9.848;2022-11-30T07:51:00;97175.56;;;11.58;68.31
40992;BME280;29633;49.168;9.848;2022-11-30T07:53:27;97175.47;;;11.60;68.41
40992;BME280;29633;49.168;9.848;2022-11-30T07:55:52;97180.50;;;11.61;68.36
40992;BME280;29633;49.168;9.848;2022-11-30T07:58:18;97181.25;;;11.63;68.47
40992;BME280;29633;49.168;9.848;2022-11-30T08:00:44;97177.69;;;11.64;68.48
40992;BME280;29633;49.168;9.848;2022-11-30T08:03:09;97186.19;;;11.66;68.59
40992;BME280;29633;49.168;9.848;2022-11-30T08:05:35;97190.44;;;11.67;68.42
40992;BME280;29633;49.168;9.848;2022-11-30T08:08:01;97190.31;;;11.69;68.54
40992;BME280;29633;49.168;9.848;2022-11-30T08:10:26;97189.38;;;11.70;68.50
40992;BME280;29633;49.168;9.848;2022-11-30T08:12:52;97193.66;;;11.71;68.63
40992;BME280;29633;49.168;9.848;2022-11-30T08:15:18;97195.19;;;11.73;68.58
40992;BME280;29633;49.168;9.848;2022-11-30T08:17:43;97199.44;;;11.74;68.53
40992;BME280;29633;49.168;9.848;2022-11-30T08:20:09;97202.72;;;11.76;68.61
40992;BME280;29633;49.168;9.848;2022-11-30T08:22:36;97199.88;;;11.79;68.37
40992;BME280;29633;49.168;9.848;2022-11-30T08:25:01;97198.84;;;11.82;68.26
40992;BME280;29633;49.168;9.848;2022-11-30T08:27:27;97204.88;;;11.82;68.24
40992;BME280;29633;49.168;9.848;2022-11-30T08:29:53;97209.81;;;11.86;68.50
40992;BME280;29633;49.168;9.848;2022-11-30T08:32:18;97212.28;;;11.87;68.25
40992;BME280;29633;49.168;9.848;2022-11-30T08:34:44;97210.41;;;11.89;68.30
40992;BME280;29633;49.168;9.848;2022-11-30T08:37:10;97211.34;;;11.88;68.41
40992;BME280;29633;49.168;9.848;2022-11-30T08:39:36;97213.94;;;11.88;68.38
40992;BME280;29633;49.168;9.848;2022-11-30T08:42:02;97219.03;;;11.90;68.37
40992;BME280;29633;49.168;9.848;2022-11-30T08:44:28;97219.72;;;11.92;68.40
40992;BME280;29633;49.168;9.848;2022-11-30T08:46:54;97222.41;;;11.90;68.25
40992;BME280;29633;49.168;9.848;2022-11-30T08:49:20;97222.41;;;11.90;68.22
40992;BME280;29633;49.168;9.848;2022-11-30T08:51:51;97220.66;;;11.91;68.17
40992;BME280;29633;49.168;9.848;2022-11-30T08:54:17;97227.50;;;11.92;68.23
40992;BME280;29633;49.168;9.848;2022-11-30T08:56:43;97224.09;;;11.91;68.41
40992;BME280;29633;49.168;9.848;2022-11-30T08:59:08;97227.50;;;11.92;68.24
40992;BME280;29633;49.168;9.848;2022-11-30T09:01:34;97242.16;;;11.93;68.36
40992;BME280;29633;49.168;9.848;2022-11-30T09:04:00;97240.41;;;11.93;68.26
40992;BME280;29633;49.168;9.848;2022-11-30T09:06:27;97238.63;;;11.94;68.37
40992;BME280;29633;49.168;9.848;2022-11-30T09:08:56;97244.75;;;11.93;68.23
40992;BME280;29633;49.168;9.848;2022-11-30T09:11:24;97243.94;;;11.92;68.31
40992;BME280;29633;49.168;9.848;2022-11-30T09:13:52;97245.69;;;11.92;68.24
40992;BME280;29633;49.168;9.848;2022-11-30T09:16:21;97246.63;;;11.91;68.26
40992;BME280;29633;49.168;9.848;2022-11-30T09:18:47;97247.47;;;11.91;68.27
40992;BME280;29633;49.168;9.848;2022-11-30T09:21:17;97247.47;;;11.91;68.09
40992;BME280;29633;49.168;9.848;2022-11-30T09:23:43;97246.63;;;11.91;68.10
40992;BME280;29633;49.168;9.848;2022-11-30T09:26:11;97248.28;;;11.92;68.24
40992;BME280;29633;49.168;9.848;2022-11-30T09:28:37;97238.16;;;11.89;68.17
40992;BME280;29633;49.168;9.848;2022-11-30T09:31:05;97237.91;;;11.92;68.16
40992;BME280;29633;49.168;9.848;2022-11-30T09:33:32;97243.09;;;11.92;68.17
40992;BME280;29633;49.168;9.848;2022-11-30T09:36:00;97242.16;;;11.93;68.01
40992;BME280;29633;49.168;9.848;2022-11-30T09:38:26;97234.38;;;11.93;68.00
40992;BME280;29633;49.168;9.848;2022-11-30T09:40:57;97236.03;;;11.94;68.15
40992;BME280;29633;49.168;9.848;2022-11-30T09:46:22;97231.53;;;11.96;67.80
40992;BME280;29633;49.168;9.848;2022-11-30T09:49:00;97228.00;;;11.97;67.91
40992;BME280;29633;49.168;9.848;2022-11-30T09:51:46;97218.63;;;11.94;68.11
40992;BME280;29633;49.168;9.848;2022-11-30T09:54:20;97229.88;;;11.95;68.43
40992;BME280;29633;49.168;9.848;2022-11-30T09:56:46;97231.28;;;11.99;68.27
40992;BME280;29633;49.168;9.848;2022-11-30T09:59:23;97231.03;;;12.02;68.18
40992;BME280;29633;49.168;9.848;2022-11-30T10:01:55;97227.59;;;12.01;68.21
40992;BME280;29633;49.168;9.848;2022-11-30T10:04:24;97230.78;;;12.05;68.19
40992;BME280;29633;49.168;9.848;2022-11-30T10:10:02;97226.75;;;12.12;68.11
40992;BME280;29633;49.168;9.848;2022-11-30T10:12:45;97224.63;;;12.17;68.04
40992;BME280;29633;49.168;9.848;2022-11-30T10:15:39;97225.34;;;12.19;68.16
40992;BME280;29633;49.168;9.848;2022-11-30T10:18:28;97228.63;;;12.21;68.02
40992;BME280;29633;49.168;9.848;2022-11-30T10:24:20;97221.31;;;12.26;68.18
40992;BME280;29633;49.168;9.848;2022-11-30T10:26:53;97224.50;;;12.29;68.14
40992;BME280;29633;49.168;9.848;2022-11-30T10:31:58;97219.72;;;12.34;68.04
40992;BME280;29633;49.168;9.848;2022-11-30T10:34:31;97225.50;;;12.38;67.98
40992;BME280;29633;49.168;9.848;2022-11-30T10:39:40;97220.78;;;12.43;68.03
40992;BME280;29633;49.168;9.848;2022-11-30T10:42:17;97223.00;;;12.48;68.09
40992;BME280;29633;49.168;9.848;2022-11-30T10:44:56;97221.09;;;12.50;68.18
40992;BME280;29633;49.168;9.848;2022-11-30T10:47:32;97215.06;;;12.49;68.07
40992;BME280;29633;49.168;9.848;2022-11-30T10:50:04;97214.13;;;12.50;68.14
40992;BME280;29633;49.168;9.848;2022-11-30T10:52:36;97213.06;;;12.53;68.12
40992;BME280;29633;49.168;9.848;2022-11-30T10:55:19;97213.88;;;12.53;68.13
40992;BME280;29633;49.168;9.848;2022-11-30T10:57:46;97207.59;;;12.56;68.04
40992;BME280;29633;49.168;9.848;2022-11-30T11:00:14;97207.59;;;12.56;68.19
40992;BME280;29633;49.168;9.848;2022-11-30T11:02:46;97207.59;;;12.56;68.18
40992;BME280;29633;49.168;9.848;2022-11-30T11:05:25;97209.94;;;12.59;68.24
40992;BME280;29633;49.168;9.848;2022-11-30T11:10:46;97212.44;;;12.60;68.03
40992;BME280;29633;49.168;9.848;2022-11-30T11:13:19;97219.16;;;12.63;68.04
40992;BME280;29633;49.168;9.848;2022-11-30T11:16:00;97211.22;;;12.64;68.16
40992;BME280;29633;49.168;9.848;2022-11-30T11:18:32;97214.53;;;12.66;68.23
40992;BME280;29633;49.168;9.848;2022-11-30T11:23:34;97216.19;;;12.67;68.00
40992;BME280;29633;49.168;9.848;2022-11-30T11:26:01;97221.28;;;12.69;68.04
40992;BME280;29633;49.168;9.848;2022-11-30T11:28:26;97212.63;;;12.68;68.24
40992;BME280;29633;49.168;9.848;2022-11-30T11:30:54;97211.91;;;12.66;68.11
40992;BME280;29633;49.168;9.848;2022-11-30T11:33:23;97214.53;;;12.66;68.23
40992;BME280;29633;49.168;9.848;2022-11-30T11:36:12;97210.28;;;12.65;68.16
40992;BME280;29633;49.168;9.848;2022-11-30T11:38:46;97206.72;;;12.66;68.27
40992;BME280;29633;49.168;9.848;2022-11-30T11:41:27;97201.66;;;12.65;68.30
40992;BME280;29633;49.168;9.848;2022-11-30T11:44:07;97204.00;;;12.68;68.10
40992;BME280;29633;49.168;9.848;2022-11-30T11:46:57;97201.28;;;12.69;68.33
40992;BME280;29633;49.168;9.848;2022-11-30T11:49:27;97202.09;;;12.70;68.19
40992;BME280;29633;49.168;9.848;2022-11-30T11:57:22;97201.16;;;12.71;68.21
40992;BME280;29633;49.168;9.848;2022-11-30T12:00:13;97202.91;;;12.70;68.04
40992;BME280;29633;49.168;9.848;2022-11-30T12:05:40;97205.78;;;12.67;68.08
40992;BME280;29633;49.168;9.848;2022-11-30T12:08:33;97210.28;;;12.65;68.14
40992;BME280;29633;49.168;9.848;2022-11-30T12:11:02;97203.44;;;12.64;68.27
40992;BME280;29633;49.168;9.848;2022-11-30T12:13:39;97204.38;;;12.63;67.71
40992;BME280;29633;49.168;9.848;2022-11-30T12:21:14;97206.41;;;12.60;68.10
40992;BME280;29633;49.168;9.848;2022-11-30T12:23:51;97201.34;;;12.58;68.09
40992;BME280;29633;49.168;9.848;2022-11-30T12:26:40;97200.50;;;12.58;68.07
40992;BME280;29633;49.168;9.848;2022-11-30T12:35:18;97198.28;;;12.53;67.91
40992;BME280;29633;49.168;9.848;2022-11-30T12:38:10;97198.28;;;12.53;68.00
40992;BME280;29633;49.168;9.848;2022-11-30T12:45:58;97192.50;;;12.50;67.86
40992;BME280;29633;49.168;9.848;2022-11-30T12:48:47;97193.31;;;12.50;68.13
40992;BME280;29633;49.168;9.848;2022-11-30T12:51:31;97193.31;;;12.50;68.12
40992;BME280;29633;49.168;9.848;2022-11-30T12:54:03;97197.69;;;12.50;68.07
40992;BME280;29633;49.168;9.848;2022-11-30T12:56:38;97197.81;;;12.48;67.99
40992;BME280;29633;49.168;9.848;2022-11-30T13:02:07;97202.31;;;12.46;68.00
40992;BME280;29633;49.168;9.848;2022-11-30T13:04:43;97197.94;;;12.47;67.97
40992;BME280;29633;49.168;9.848;2022-11-30T13:07:33;97190.97;;;12.47;68.14
40992;BME280;29633;49.168;9.848;2022-11-30T13:12:38;97196.03;;;12.49;67.90
40992;BME280;29633;49.168;9.848;2022-11-30T13:15:16;97191.66;;;12.49;67.96
40992;BME280;29633;49.168;9.848;2022-11-30T13:17:43;97199.34;;;12.51;67.83
40992;BME280;29633;49.168;9.848;2022-11-30T13:22:58;97196.19;;;12.47;67.86
40992;BME280;29633;49.168;9.848;2022-11-30T13:28:02;97197.00;;;12.48;67.88
40992;BME280;29633;49.168;9.848;2022-11-30T13:30:34;97196.19;;;12.47;68.02
40992;BME280;29633;49.168;9.848;2022-11-30T13:36:32;97199.03;;;12.44;67.95
40992;BME280;29633;49.168;9.848;2022-11-30T13:39:29;97206.94;;;12.43;67.97
40992;BME280;29633;49.168;9.848;2022-11-30T13:46:55;97204.72;;;12.38;68.07
40992;BME280;29633;49.168;9.848;2022-11-30T13:49:34;97200.47;;;12.37;68.10
40992;BME280;29633;49.168;9.848;2022-11-30T13:52:04;97203.09;;;12.37;67.83
40992;BME280;29633;49.168;9.848;2022-11-30T13:54:46;97203.09;;;12.37;68.09
40992;BME280;29633;49.168;9.848;2022-11-30T14:05:34;97206.16;;;12.31;68.00
40992;BME280;29633;49.168;9.848;2022-11-30T14:10:30;97204.75;;;12.27;67.86
40992;BME280;29633;49.168;9.848;2022-11-30T14:23:20;97213.72;;;12.23;67.96
40992;BME280;29633;49.168;9.848;2022-11-30T14:25:49;97208.69;;;12.21;67.55
40992;BME280;29633;49.168;9.848;2022-11-30T14:28:22;97214.94;;;12.19;67.70
40992;BME280;29633;49.168;9.848;2022-11-30T14:30:49;97210.69;;;12.18;67.74
40992;BME280;29633;49.168;9.848;2022-11-30T14:33:22;97217.91;;;12.14;67.87
40992;BME280;29633;49.168;9.848;2022-11-30T14:35:53;97219.78;;;12.12;67.96
40992;BME280;29633;49.168;9.848;2022-11-30T14:38:27;97222.53;;;12.11;67.92
40992;BME280;29633;49.168;9.848;2022-11-30T14:40:55;97216.75;;;12.07;67.74
40992;BME280;29633;49.168;9.848;2022-11-30T14:43:21;97218.63;;;12.05;67.83
40992;BME280;29633;49.168;9.848;2022-11-30T14:45:59;97223.00;;;12.05;67.85
40992;BME280;29633;49.168;9.848;2022-11-30T14:48:25;97224.91;;;12.03;67.71
40992;BME280;29633;49.168;9.848;2022-11-30T14:50:55;97212.84;;;12.02;67.77
40992;BME280;29633;49.168;9.848;2022-11-30T15:01:30;97225.50;;;11.95;67.71
40992;BME280;29633;49.168;9.848;2022-11-30T15:04:09;97226.56;;;11.93;67.67
40992;BME280;29633;49.168;9.848;2022-11-30T15:06:36;97229.63;;;11.87;67.75
40992;BME280;29633;49.168;9.848;2022-11-30T15:09:03;97232.38;;;11.85;67.67
40992;BME280;29633;49.168;9.848;2022-11-30T15:11:29;97230.84;;;11.82;67.78